createdAt,value
2023-12-04T00:01:26.818Z,14.13
2023-12-04T00:03:54.752Z,13.18
2023-12-04T00:06:24.936Z,15.27
2023-12-04T00:08:52.979Z,16.92
2023-12-04T00:11:21.065Z,15.93
2023-12-04T00:13:48.782Z,14.13
2023-12-04T00:16:16.765Z,14.45
2023-12-04T00:18:44.549Z,14.07
2023-12-04T00:21:14.558Z,14.45
2023-12-04T00:23:42.289Z,16.08
2023-12-04T00:26:10.286Z,15.40
2023-12-04T00:28:38.627Z,13.82
2023-12-04T00:31:07.063Z,16.00
2023-12-04T00:33:34.831Z,13.07
2023-12-04T00:36:03.027Z,12.40
2023-12-04T00:38:30.745Z,14.30
2023-12-04T00:40:58.653Z,17.67
2023-12-04T00:43:26.775Z,15.50
2023-12-04T00:45:54.784Z,11.68
2023-12-04T00:48:22.705Z,12.60
2023-12-04T00:50:52.299Z,12.27
2023-12-04T00:53:19.930Z,12.38
2023-12-04T00:55:47.938Z,11.10
2023-12-04T00:58:16.101Z,13.40
2023-12-04T01:00:44.192Z,13.23
2023-12-04T01:03:11.839Z,13.63
2023-12-04T01:05:39.918Z,13.60
2023-12-04T01:08:07.753Z,13.50
2023-12-04T01:10:35.733Z,11.57
2023-12-04T01:13:03.610Z,12.70
2023-12-04T01:15:31.845Z,13.60
2023-12-04T01:18:02.850Z,10.90
2023-12-04T01:20:31.338Z,11.20
2023-12-04T01:22:59.060Z,9.43
2023-12-04T01:25:27.227Z,10.45
2023-12-04T01:27:54.962Z,10.67
2023-12-04T01:30:23.052Z,10.45
2023-12-04T01:32:50.696Z,10.27
2023-12-04T01:35:19.085Z,10.68
2023-12-04T01:37:46.784Z,10.82
2023-12-04T01:40:14.847Z,11.83
2023-12-04T01:43:53.705Z,11.07
2023-12-04T01:46:22.905Z,11.70
2023-12-04T01:48:51.384Z,11.38
2023-12-04T01:51:21.398Z,11.85
2023-12-04T01:53:49.269Z,10.53
2023-12-04T01:56:19.612Z,11.45
2023-12-04T01:58:47.918Z,10.82
2023-12-04T02:01:16.243Z,7.50
2023-12-04T02:03:44.385Z,10.32
2023-12-04T02:06:13.914Z,12.20
2023-12-04T02:08:42.625Z,11.20
2023-12-04T02:11:11.329Z,11.70
2023-12-04T02:13:40.667Z,11.77
2023-12-04T02:16:11.900Z,10.45
2023-12-04T02:18:39.842Z,11.67
2023-12-04T02:21:08.254Z,11.77
2023-12-04T02:23:35.983Z,11.50
2023-12-04T02:26:14.467Z,9.90
2023-12-04T02:28:44.670Z,9.68
2023-12-04T02:31:13.364Z,9.83
2023-12-04T02:33:42.257Z,9.35
2023-12-04T02:36:11.922Z,9.18
2023-12-04T02:38:39.804Z,11.43
2023-12-04T02:41:09.505Z,10.63
2023-12-04T02:43:37.000Z,11.57
2023-12-04T02:46:05.710Z,17.55
2023-12-04T02:48:36.883Z,12.23
2023-12-04T02:51:05.414Z,11.02
2023-12-04T02:53:33.086Z,11.18
2023-12-04T02:56:01.210Z,11.53
2023-12-04T02:58:28.771Z,12.05
2023-12-04T03:00:56.967Z,12.82
2023-12-04T03:03:24.636Z,13.20
2023-12-04T03:05:52.861Z,10.32
2023-12-04T03:08:48.146Z,11.20
2023-12-04T03:11:16.255Z,12.18
2023-12-04T03:13:43.892Z,13.07
2023-12-04T03:16:19.027Z,10.35
2023-12-04T03:18:47.214Z,10.80
2023-12-04T03:21:16.398Z,11.23
2023-12-04T03:23:44.086Z,11.45
2023-12-04T03:26:11.984Z,12.30
2023-12-04T03:28:42.766Z,13.25
2023-12-04T03:31:11.156Z,9.68
2023-12-04T03:33:39.074Z,9.97
2023-12-04T03:36:07.789Z,12.15
2023-12-04T03:38:35.621Z,14.02
2023-12-04T03:41:03.737Z,10.75
2023-12-04T03:43:31.322Z,11.38
2023-12-04T03:45:59.504Z,12.07
2023-12-04T03:48:27.172Z,10.73
2023-12-04T03:50:55.996Z,11.15
2023-12-04T03:53:25.088Z,12.23
2023-12-04T03:55:53.479Z,10.80
2023-12-04T03:58:21.119Z,10.17
2023-12-04T04:00:49.380Z,10.48
2023-12-04T04:03:17.503Z,12.23
2023-12-04T04:05:45.758Z,11.43
2023-12-04T04:08:13.741Z,12.05
2023-12-04T04:10:41.880Z,13.87
2023-12-04T04:13:09.695Z,13.63
2023-12-04T04:15:37.905Z,12.13
2023-12-04T04:18:05.759Z,10.38
2023-12-04T04:20:33.913Z,12.50
2023-12-04T04:23:04.173Z,9.27
2023-12-04T04:25:32.333Z,9.35
2023-12-04T04:28:00.566Z,13.07
2023-12-04T04:30:28.932Z,11.02
2023-12-04T04:32:56.777Z,14.00
2023-12-04T04:35:24.878Z,10.23
2023-12-04T04:37:53.188Z,12.63
2023-12-04T04:40:21.590Z,13.27
2023-12-04T04:42:49.716Z,13.48
2023-12-04T04:45:19.291Z,10.60
2023-12-04T04:47:47.205Z,9.30
2023-12-04T04:50:16.705Z,10.20
2023-12-04T04:52:44.780Z,10.57
2023-12-04T04:55:45.610Z,14.95
2023-12-04T04:58:01.139Z,10.38
2023-12-04T05:00:29.754Z,9.53
2023-12-04T05:02:58.228Z,12.48
2023-12-04T05:05:26.336Z,14.48
2023-12-04T05:07:54.293Z,14.57
2023-12-04T05:10:22.400Z,13.15
2023-12-04T05:12:50.230Z,16.07
2023-12-04T05:15:18.407Z,15.40
2023-12-04T05:17:46.434Z,15.57
2023-12-04T05:20:14.734Z,16.30
2023-12-04T05:22:42.657Z,13.98
2023-12-04T05:25:11.006Z,16.47
2023-12-04T05:27:39.205Z,25.23
2023-12-04T05:30:08.394Z,64.00
2023-12-04T05:32:37.522Z,27.85
2023-12-04T05:35:06.308Z,9.63
2023-12-04T05:37:34.138Z,17.37
2023-12-04T05:40:02.322Z,13.30
2023-12-04T05:42:30.352Z,12.75
2023-12-04T05:44:59.662Z,12.15
2023-12-04T05:47:28.048Z,14.48
2023-12-04T05:49:56.861Z,17.10
2023-12-04T05:52:24.860Z,21.85
2023-12-04T05:54:56.160Z,12.10
2023-12-04T05:57:26.186Z,10.50
2023-12-04T05:59:54.690Z,17.98
2023-12-04T06:02:22.677Z,12.47
2023-12-04T06:04:50.886Z,10.43
2023-12-04T06:07:19.007Z,14.57
2023-12-04T06:09:47.417Z,11.25
2023-12-04T06:12:15.492Z,14.88
2023-12-04T06:14:43.839Z,12.80
2023-12-04T06:17:11.738Z,12.32
2023-12-04T06:19:40.409Z,15.82
2023-12-04T06:22:08.925Z,12.57
2023-12-04T06:24:37.868Z,11.18
2023-12-04T06:27:07.898Z,12.40
2023-12-04T06:29:36.997Z,26.85
2023-12-04T06:32:06.132Z,21.92
2023-12-04T06:34:34.932Z,19.42
2023-12-04T06:37:04.767Z,90.63
2023-12-04T06:39:35.099Z,52.13
2023-12-04T06:42:03.679Z,25.40
2023-12-04T06:44:32.318Z,14.48
2023-12-04T06:47:01.956Z,25.13
2023-12-04T06:49:34.794Z,16.20
2023-12-04T06:52:02.848Z,21.43
2023-12-04T06:54:31.086Z,103.32
2023-12-04T06:56:59.889Z,57.22
2023-12-04T06:59:27.932Z,41.53
2023-12-04T07:01:56.459Z,56.45
2023-12-04T07:04:24.828Z,36.03
2023-12-04T07:06:53.134Z,37.10
2023-12-04T07:09:22.371Z,27.90
2023-12-04T07:11:50.657Z,54.63
2023-12-04T07:14:18.739Z,48.33
2023-12-04T07:16:46.697Z,39.77
2023-12-04T07:19:16.436Z,28.10
2023-12-04T07:21:44.791Z,29.67
2023-12-04T07:24:13.024Z,29.70
2023-12-04T07:26:41.156Z,20.50
2023-12-04T07:29:09.802Z,21.03
2023-12-04T07:31:37.534Z,20.25
2023-12-04T07:34:06.250Z,21.95
2023-12-04T07:36:34.098Z,30.75
2023-12-04T07:39:03.153Z,25.85
2023-12-04T07:41:32.387Z,23.60
2023-12-04T07:44:00.605Z,24.38
2023-12-04T07:46:28.483Z,63.33
2023-12-04T07:48:57.106Z,46.42
2023-12-04T07:51:25.416Z,37.25
2023-12-04T07:53:53.733Z,25.07
2023-12-04T07:56:21.987Z,46.90
2023-12-04T07:58:50.651Z,22.23
2023-12-04T08:01:18.772Z,20.20
2023-12-04T08:03:47.839Z,16.63
2023-12-04T08:06:17.054Z,19.20
2023-12-04T08:08:45.202Z,24.30
2023-12-04T08:11:13.323Z,56.97
2023-12-04T08:13:42.093Z,60.78
2023-12-04T08:16:16.777Z,47.53
2023-12-04T08:18:45.509Z,114.87
2023-12-04T08:21:15.132Z,35.25
2023-12-04T08:23:43.886Z,14.05
2023-12-04T08:26:16.999Z,14.75
2023-12-04T08:28:46.116Z,19.20
2023-12-04T08:31:14.353Z,26.57
2023-12-04T08:33:43.186Z,27.15
2023-12-04T08:36:13.128Z,17.75
2023-12-04T08:38:42.230Z,20.45
2023-12-04T08:41:10.241Z,38.72
2023-12-04T08:43:38.771Z,24.50
2023-12-04T08:46:07.133Z,19.15
2023-12-04T08:48:35.863Z,21.80
2023-12-04T08:51:04.072Z,15.82
2023-12-04T08:53:32.573Z,23.30
2023-12-04T08:56:00.725Z,50.50
2023-12-04T08:58:29.477Z,25.08
2023-12-04T09:00:57.559Z,21.48
2023-12-04T09:03:31.663Z,23.52
2023-12-04T09:06:01.439Z,24.73
2023-12-04T09:08:35.961Z,30.80
2023-12-04T09:11:18.519Z,29.38
2023-12-04T09:13:52.412Z,11.75
2023-12-04T09:16:20.719Z,18.25
2023-12-04T09:18:49.027Z,16.45
2023-12-04T09:21:17.958Z,16.07
2023-12-04T09:23:51.867Z,20.67
2023-12-04T09:26:20.472Z,21.70
2023-12-04T09:28:50.137Z,41.83
2023-12-04T09:31:26.087Z,28.50
2023-12-04T09:34:06.921Z,17.27
2023-12-04T09:36:40.447Z,15.90
2023-12-04T09:39:15.489Z,28.70
2023-12-04T09:41:46.778Z,13.82
2023-12-04T09:44:16.752Z,11.98
2023-12-04T09:46:58.763Z,19.23
2023-12-04T09:49:40.044Z,31.77
2023-12-04T09:52:16.618Z,46.15
2023-12-04T09:54:46.168Z,73.03
2023-12-04T09:57:26.853Z,41.95
2023-12-04T10:00:02.544Z,25.10
2023-12-04T10:02:41.978Z,20.38
2023-12-04T10:05:11.262Z,14.00
2023-12-04T10:07:44.311Z,21.13
2023-12-04T10:10:12.681Z,24.83
2023-12-04T10:12:40.709Z,16.83
2023-12-04T10:15:11.491Z,21.83
2023-12-04T10:17:41.813Z,21.02
2023-12-04T10:20:22.907Z,30.73
2023-12-04T10:23:03.107Z,37.08
2023-12-04T10:25:33.893Z,14.60
2023-12-04T10:28:17.077Z,32.97
2023-12-04T10:30:47.225Z,38.60
2023-12-04T10:33:18.626Z,32.95
2023-12-04T10:35:51.952Z,18.35
2023-12-04T10:38:29.257Z,13.83
2023-12-04T10:41:21.650Z,12.70
2023-12-04T10:44:04.445Z,9.80
2023-12-04T10:46:47.060Z,9.18
2023-12-04T10:49:23.416Z,11.18
2023-12-04T10:52:12.024Z,23.87
2023-12-04T11:05:33.673Z,17.58
2023-12-04T11:08:15.443Z,13.40
2023-12-04T11:11:00.982Z,21.20
2023-12-04T11:13:31.712Z,18.70
2023-12-04T11:16:09.089Z,24.35
2023-12-04T11:18:40.446Z,23.63
2023-12-04T11:21:12.978Z,50.60
2023-12-04T11:23:41.997Z,11.82
2023-12-04T11:26:12.009Z,9.15
2023-12-04T11:28:42.336Z,60.63
2023-12-04T11:31:11.763Z,16.08
2023-12-04T11:33:40.523Z,29.20
2023-12-04T11:36:17.515Z,14.43
2023-12-04T11:38:48.947Z,53.40
2023-12-04T11:41:25.166Z,11.57
2023-12-04T11:43:59.501Z,14.80
2023-12-04T11:46:30.049Z,12.33
2023-12-04T11:49:19.741Z,9.55
2023-12-04T11:51:52.876Z,14.13
2023-12-04T11:54:27.958Z,16.90
2023-12-04T11:57:03.359Z,8.50
2023-12-04T11:59:39.365Z,12.87
2023-12-04T12:02:12.883Z,10.07
2023-12-04T12:04:42.090Z,18.35
2023-12-04T12:07:11.754Z,14.65
2023-12-04T12:09:40.665Z,8.85
2023-12-04T12:12:11.122Z,9.70
2023-12-04T12:14:39.096Z,10.27
2023-12-04T12:17:07.387Z,10.52
2023-12-04T12:19:35.385Z,12.45
2023-12-04T12:22:05.686Z,14.60
2023-12-04T12:24:34.154Z,15.87
2023-12-04T12:27:03.312Z,10.88
2023-12-04T12:29:31.307Z,11.57
2023-12-04T12:31:59.671Z,10.65
2023-12-04T12:34:31.145Z,12.10
2023-12-04T12:36:59.713Z,9.43
2023-12-04T12:39:27.937Z,7.80
2023-12-04T12:41:56.844Z,57.13
2023-12-04T12:44:24.935Z,16.05
2023-12-04T12:46:53.701Z,12.20
2023-12-04T12:49:32.397Z,10.17
2023-12-04T12:52:11.999Z,38.33
2023-12-04T12:54:44.979Z,54.58
2023-12-04T12:57:14.501Z,12.02
2023-12-04T12:59:42.913Z,11.88
2023-12-04T13:02:12.232Z,15.60
2023-12-04T13:04:42.943Z,18.05
2023-12-04T13:07:12.119Z,10.93
2023-12-04T13:09:40.553Z,26.63
2023-12-04T13:12:10.667Z,14.88
2023-12-04T13:14:40.889Z,11.10
2023-12-04T13:17:11.136Z,10.27
2023-12-04T13:19:39.502Z,10.60
2023-12-04T13:22:08.858Z,9.45
2023-12-04T13:24:42.801Z,12.85
2023-12-04T13:27:12.035Z,17.60
2023-12-04T13:29:40.211Z,15.43
2023-12-04T13:32:09.483Z,15.45
2023-12-04T13:34:37.892Z,10.32
2023-12-04T13:37:06.407Z,11.02
2023-12-04T13:39:51.685Z,10.63
2023-12-04T13:42:40.794Z,13.40
2023-12-04T13:45:11.068Z,11.73
2023-12-04T13:47:41.082Z,10.68
2023-12-04T13:50:12.912Z,11.20
2023-12-04T13:52:43.908Z,10.13
2023-12-04T13:55:23.035Z,13.07
2023-12-04T13:58:04.454Z,10.75
2023-12-04T14:00:32.406Z,9.63
2023-12-04T14:03:08.820Z,12.63
2023-12-04T14:05:37.426Z,10.50
2023-12-04T14:08:09.198Z,18.35
2023-12-04T14:10:38.763Z,10.02
2023-12-04T14:13:07.317Z,14.05
2023-12-04T14:15:35.469Z,11.73
2023-12-04T14:18:04.591Z,12.80
2023-12-04T14:20:32.596Z,14.85
2023-12-04T14:23:01.294Z,35.38
2023-12-04T14:25:29.758Z,105.63
2023-12-04T14:27:58.438Z,138.48
2023-12-04T14:30:29.967Z,97.97
2023-12-04T14:32:58.786Z,62.45
2023-12-04T14:35:27.506Z,34.85
2023-12-04T14:37:56.181Z,23.50
2023-12-04T14:40:24.908Z,13.68
2023-12-04T14:42:53.392Z,14.97
2023-12-04T14:45:22.497Z,18.38
2023-12-04T14:47:54.446Z,18.67
2023-12-04T14:50:24.012Z,20.13
2023-12-04T14:52:54.879Z,18.95
2023-12-04T14:55:26.577Z,20.87
2023-12-04T14:58:28.342Z,22.63
2023-12-04T15:01:21.864Z,24.63
2023-12-04T15:04:09.429Z,17.83
2023-12-04T15:06:57.457Z,15.10
2023-12-04T15:09:46.592Z,15.60
2023-12-04T15:12:51.570Z,18.33
2023-12-04T15:15:40.082Z,23.30
2023-12-04T15:18:27.030Z,23.98
2023-12-04T15:20:55.806Z,18.90
2023-12-04T15:23:25.182Z,13.63
2023-12-04T15:25:54.300Z,20.70
2023-12-04T15:28:22.247Z,51.00
2023-12-04T15:30:51.232Z,38.13
2023-12-04T15:33:20.071Z,33.97
2023-12-04T15:35:48.863Z,34.20
2023-12-04T15:38:17.323Z,36.08
2023-12-04T15:40:46.765Z,23.15
2023-12-04T15:43:15.081Z,25.10
2023-12-04T15:45:44.463Z,26.80
2023-12-04T15:48:14.606Z,30.43
2023-12-04T15:50:44.661Z,23.63
2023-12-04T15:53:12.506Z,26.17
2023-12-04T15:55:41.480Z,28.02
2023-12-04T15:58:09.321Z,26.73
2023-12-04T16:00:41.407Z,21.77
2023-12-04T16:03:10.240Z,20.67
2023-12-04T16:05:39.161Z,14.85
2023-12-04T16:08:07.327Z,15.18
2023-12-04T16:10:38.004Z,24.95
2023-12-04T16:13:06.601Z,23.27
2023-12-04T16:15:35.846Z,27.85
2023-12-04T16:18:05.306Z,44.83
2023-12-04T16:20:35.400Z,27.15
2023-12-04T16:23:04.066Z,39.67
2023-12-04T16:25:33.018Z,37.10
2023-12-04T16:28:02.683Z,31.52
2023-12-04T16:30:31.353Z,21.35
2023-12-04T16:32:59.476Z,25.42
2023-12-04T16:35:30.339Z,26.90
2023-12-04T16:38:03.749Z,25.60
2023-12-04T16:40:32.213Z,31.67
2023-12-04T16:43:02.368Z,62.47
2023-12-04T16:45:32.526Z,86.97
2023-12-04T16:48:01.621Z,32.53
2023-12-04T16:50:34.354Z,26.87
2023-12-04T16:53:03.169Z,20.67
2023-12-04T16:55:32.149Z,25.98
2023-12-04T16:58:05.830Z,23.17
2023-12-04T17:00:38.427Z,30.45
2023-12-04T17:03:06.648Z,22.47
2023-12-04T17:05:35.174Z,36.30
2023-12-04T17:08:03.525Z,29.17
2023-12-04T17:10:31.994Z,48.25
2023-12-04T17:13:00.394Z,95.47
2023-12-04T17:15:29.182Z,82.23
2023-12-04T17:17:57.362Z,24.88
2023-12-04T17:20:26.256Z,76.32
2023-12-04T17:22:54.560Z,38.95
2023-12-04T17:25:24.180Z,27.17
2023-12-04T17:27:52.953Z,35.73
2023-12-04T17:30:21.277Z,35.83
2023-12-04T17:32:49.887Z,19.75
2023-12-04T17:35:18.393Z,21.63
2023-12-04T17:37:47.205Z,26.33
2023-12-04T17:40:17.326Z,37.37
2023-12-04T17:42:50.469Z,38.90
2023-12-04T17:45:20.486Z,25.30
2023-12-04T17:47:49.515Z,60.03
2023-12-04T17:50:18.005Z,48.65
2023-12-04T17:52:46.614Z,42.03
2023-12-04T17:55:16.822Z,30.58
2023-12-04T17:57:45.288Z,45.80
2023-12-04T18:00:20.271Z,29.13
2023-12-04T18:02:48.515Z,43.75
2023-12-04T18:05:18.028Z,34.63
2023-12-04T18:07:48.658Z,35.22
2023-12-04T18:10:17.209Z,35.55
2023-12-04T18:12:45.512Z,45.25
2023-12-04T18:15:14.711Z,46.38
2023-12-04T18:17:43.846Z,35.03
2023-12-04T18:20:15.812Z,67.40
2023-12-04T18:22:46.500Z,101.53
2023-12-04T18:25:15.577Z,69.68
2023-12-04T18:27:44.639Z,47.08
2023-12-04T18:30:18.212Z,45.47
2023-12-04T18:32:46.544Z,52.70
2023-12-04T18:35:16.315Z,45.30
2023-12-04T18:37:50.285Z,44.13
2023-12-04T18:40:21.241Z,41.35
2023-12-04T18:42:51.519Z,47.23
2023-12-04T18:45:20.495Z,40.00
2023-12-04T18:48:00.632Z,26.27
2023-12-04T18:50:37.431Z,38.40
2023-12-04T18:53:06.843Z,45.10
2023-12-04T18:55:35.897Z,37.17
2023-12-04T18:58:04.856Z,32.60
2023-12-04T19:00:33.420Z,37.13
2023-12-04T19:03:01.691Z,42.88
2023-12-04T19:05:32.475Z,76.57
2023-12-04T19:08:01.085Z,98.97
2023-12-04T19:10:33.073Z,40.92
2023-12-04T19:13:01.129Z,72.18
2023-12-04T19:15:31.981Z,79.65
2023-12-04T19:18:00.200Z,75.85
2023-12-04T19:20:31.896Z,60.90
2023-12-04T19:23:03.172Z,70.80
2023-12-04T19:28:10.880Z,65.63
2023-12-04T19:30:40.652Z,57.00
2023-12-04T19:33:15.056Z,63.97
2023-12-04T19:35:47.222Z,28.10
2023-12-04T19:38:15.283Z,20.38
2023-12-04T19:40:44.122Z,26.60
2023-12-04T19:43:16.432Z,28.55
2023-12-04T19:45:45.616Z,16.13
2023-12-04T19:48:13.981Z,30.17
2023-12-04T19:50:43.445Z,34.90
2023-12-04T19:53:12.300Z,33.38
2023-12-04T19:55:40.839Z,39.47
2023-12-04T19:58:08.685Z,38.70
2023-12-04T20:00:37.126Z,39.38
2023-12-04T20:03:06.973Z,41.72
2023-12-04T20:05:36.028Z,38.33
2023-12-04T20:08:09.605Z,21.20
2023-12-04T20:10:39.837Z,22.63
2023-12-04T20:13:08.519Z,28.65
2023-12-04T20:15:36.829Z,30.27
2023-12-04T20:18:05.299Z,28.27
2023-12-04T20:20:34.325Z,23.35
2023-12-04T20:23:02.310Z,25.30
2023-12-04T20:25:30.865Z,41.80
2023-12-04T20:28:00.673Z,31.70
2023-12-04T20:30:31.942Z,28.35
2023-12-04T20:33:00.857Z,23.02
2023-12-04T20:35:30.391Z,19.53
2023-12-04T20:37:58.376Z,18.30
2023-12-04T20:40:26.624Z,45.70
2023-12-04T20:42:54.779Z,43.78
2023-12-04T20:45:29.277Z,39.63
2023-12-04T20:47:57.818Z,105.03
2023-12-04T20:50:27.213Z,37.08
2023-12-04T20:52:55.551Z,44.00
2023-12-04T20:55:24.096Z,65.30
2023-12-04T20:57:52.204Z,49.03
2023-12-04T21:00:21.324Z,26.70
2023-12-04T21:02:50.025Z,26.52
2023-12-04T21:05:18.588Z,39.70
2023-12-04T21:07:46.749Z,33.65
2023-12-04T21:10:14.875Z,32.70
2023-12-04T21:12:42.935Z,39.63
2023-12-04T21:15:12.105Z,25.63
2023-12-04T21:17:40.423Z,18.05
2023-12-04T21:20:09.860Z,16.05
2023-12-04T21:22:37.781Z,14.77
2023-12-04T21:25:10.216Z,17.13
2023-12-04T21:27:39.392Z,29.13
2023-12-04T21:30:09.488Z,30.05
2023-12-04T21:32:38.041Z,40.53
2023-12-04T21:35:06.656Z,33.72
2023-12-04T21:37:34.770Z,19.63
2023-12-04T21:40:03.040Z,17.45
2023-12-04T21:42:31.093Z,14.77
2023-12-04T21:44:59.598Z,17.75
2023-12-04T21:47:27.951Z,20.45
2023-12-04T21:49:56.494Z,19.23
2023-12-04T21:52:25.074Z,18.75
2023-12-04T21:54:53.277Z,21.52
2023-12-04T21:57:21.638Z,23.23
2023-12-04T21:59:51.961Z,19.20
2023-12-04T22:02:20.008Z,20.03
2023-12-04T22:04:50.075Z,17.65
2023-12-04T22:07:19.032Z,23.13
2023-12-04T22:09:47.384Z,19.65
2023-12-04T22:12:15.669Z,20.17
2023-12-04T22:14:44.048Z,16.47
2023-12-04T22:17:12.004Z,13.85
2023-12-04T22:19:40.793Z,16.35
2023-12-04T22:22:08.678Z,15.98
2023-12-04T22:24:36.899Z,17.88
2023-12-04T22:27:05.367Z,21.77
2023-12-04T22:29:33.924Z,20.42
2023-12-04T22:32:02.402Z,23.38
2023-12-04T22:34:30.688Z,22.98
2023-12-04T22:36:58.833Z,18.35
2023-12-04T22:39:27.035Z,16.50
2023-12-04T22:41:55.072Z,16.88
2023-12-04T22:44:23.720Z,20.45
2023-12-04T22:46:51.623Z,16.75
2023-12-04T22:49:19.844Z,15.43
2023-12-04T22:51:47.661Z,16.80
2023-12-04T22:54:15.925Z,14.95
2023-12-04T22:56:44.148Z,13.30
2023-12-04T22:59:12.167Z,22.10
2023-12-04T23:01:40.177Z,21.35
2023-12-04T23:04:08.564Z,20.40
2023-12-04T23:06:36.720Z,18.98
2023-12-04T23:09:04.825Z,23.65
2023-12-04T23:11:33.195Z,22.45
2023-12-04T23:14:01.207Z,24.65
2023-12-04T23:16:29.019Z,28.30
2023-12-04T23:19:00.716Z,31.15
2023-12-04T23:21:29.675Z,30.17
2023-12-04T23:23:57.762Z,31.52
2023-12-04T23:26:27.067Z,38.08
2023-12-04T23:28:54.975Z,30.40
2023-12-04T23:31:24.234Z,31.20
2023-12-04T23:33:52.641Z,36.95
2023-12-04T23:36:20.848Z,30.90
2023-12-04T23:38:49.128Z,30.48
2023-12-04T23:41:16.950Z,34.03
2023-12-04T23:43:45.054Z,36.65
2023-12-04T23:46:12.991Z,31.05
2023-12-04T23:48:41.473Z,29.10
2023-12-04T23:51:09.635Z,24.70
2023-12-04T23:53:37.592Z,34.33
2023-12-04T23:56:06.025Z,33.17
2023-12-04T23:58:34.444Z,32.75
